Harkness, New York
Current Conditions -  °F | °C
As of 12:53 PM on Thursday 29 Jan 2015 (Local Time) from KPBG Reporting Station
Clear Clear  
Wind Chill:   Ceiling: Unl
Heat Index: 22°   Visibility: 10mi
Dew Point: 11°   Wind: 14mph
Humidity: 63%   Direction: 150°SSE
Pressure: 30.08"   Gusts: NA
Location:  44.5623°N, 73.5877°W
Report Text: KPBG 291753Z AUTO 15012KT 10SM CLR M06/M12 A3008 RMK AO2 SLP192 60000 T10561117 11056 21200 58051
Loading
Personal Weather Stations






























Interactive Weather Map New forecast layout! Learn more

10-Day Weather Forecast

Advertisements
Track Severe Weather on mobile